Time;durP1;ratioP1;P1;durP2;ratioP2;P2;SDS_P1;SDS_P2;PMS_P1;PMS_P2;Temp;Humidity;BMP_temperature;BMP_pressure;BME280_temperature;BME280_humidity;BME280_pressure;Samples;Min_cycle;Max_cycle;Signal;HPM_P1;HPM_P2
2022/07/30 00:01:12;;;;;;;10.40;3.70;;;;;;;;;;5060458;28;20027;-65
2022/07/30 00:03:37;;;;;;;14.00;5.13;;;;;;;;;;5069397;28;20020;-65
2022/07/30 00:06:02;;;;;;;12.20;3.60;;;;;;;;;;5071647;28;20282;-65
2022/07/30 00:08:27;;;;;;;7.30;3.78;;;;;;;;;;5070713;28;20016;-65
2022/07/30 00:10:53;;;;;;;10.80;4.27;;;;;;;;;;5070286;28;20354;-65
2022/07/30 00:13:18;;;;;;;7.80;3.50;;;;;;;;;;5068380;28;20317;-65
2022/07/30 00:15:43;;;;;;;9.85;3.78;;;;;;;;;;5063215;28;20275;-65
2022/07/30 00:18:08;;;;;;;9.48;3.47;;;;;;;;;;5052050;28;20096;-65
2022/07/30 00:20:34;;;;;;;9.43;3.30;;;;;;;;;;5057018;28;20090;-64
2022/07/30 00:23:01;;;;;;;6.15;3.80;;;;;;;;;;5058688;28;20291;-64
2022/07/30 00:25:27;;;;;;;10.93;3.63;;;;;;;;;;5056484;28;20074;-65
2022/07/30 00:27:52;;;;;;;9.90;4.05;;;;;;;;;;5067653;28;20481;-64
2022/07/30 00:30:17;;;;;;;10.23;4.15;;;;;;;;;;5058283;28;20053;-64
2022/07/30 00:32:42;;;;;;;11.20;3.95;;;;;;;;;;5069504;28;20086;-64
2022/07/30 00:35:08;;;;;;;8.27;3.63;;;;;;;;;;5067030;28;20059;-64
2022/07/30 00:37:33;;;;;;;9.05;3.67;;;;;;;;;;5051679;28;20735;-64
2022/07/30 00:39:58;;;;;;;7.53;3.90;;;;;;;;;;5053300;28;20407;-64
2022/07/30 00:42:35;;;;;;;5.50;3.90;;;;;;;;;;5070034;28;20271;-64
2022/07/30 00:45:00;;;;;;;6.57;3.75;;;;;;;;;;5062825;28;20017;-65
2022/07/30 00:47:25;;;;;;;7.27;3.53;;;;;;;;;;5067466;28;20025;-63
2022/07/30 00:49:50;;;;;;;6.33;3.47;;;;;;;;;;5062349;28;20350;-64
2022/07/30 00:52:15;;;;;;;5.23;3.60;;;;;;;;;;5067367;28;20278;-64
2022/07/30 00:54:40;;;;;;;8.53;3.90;;;;;;;;;;5053382;28;20263;-64
2022/07/30 00:57:06;;;;;;;15.83;4.07;;;;;;;;;;5064176;28;20336;-64
2022/07/30 00:59:31;;;;;;;6.93;3.60;;;;;;;;;;5052853;28;20267;-64
2022/07/30 01:01:59;;;;;;;5.78;3.63;;;;;;;;;;5065560;28;20035;-64
2022/07/30 01:04:24;;;;;;;10.88;4.13;;;;;;;;;;5063420;28;20060;-64
2022/07/30 01:06:49;;;;;;;4.43;3.13;;;;;;;;;;5056780;28;20052;-64
2022/07/30 01:09:14;;;;;;;10.77;4.03;;;;;;;;;;5052572;28;20266;-64
2022/07/30 01:11:41;;;;;;;6.65;3.53;;;;;;;;;;5063419;28;20274;-64
2022/07/30 01:14:07;;;;;;;12.25;3.88;;;;;;;;;;5065434;28;20081;-64
2022/07/30 01:16:32;;;;;;;6.53;3.78;;;;;;;;;;5070784;28;20457;-64
2022/07/30 01:21:45;;;;;;;9.85;3.72;;;;;;;;;;5066439;28;20040;-64
2022/07/30 01:24:16;;;;;;;6.65;3.78;;;;;;;;;;5067359;28;20028;-64
2022/07/30 01:26:42;;;;;;;5.82;3.63;;;;;;;;;;5061075;28;20031;-64
2022/07/30 01:29:08;;;;;;;10.23;3.67;;;;;;;;;;5054438;28;20021;-64
2022/07/30 01:31:33;;;;;;;12.23;3.83;;;;;;;;;;5058366;28;20024;-64
2022/07/30 01:33:59;;;;;;;6.03;4.07;;;;;;;;;;5052999;28;20020;-64
2022/07/30 01:36:24;;;;;;;5.78;3.42;;;;;;;;;;5064003;28;20024;-64
2022/07/30 01:38:50;;;;;;;10.00;3.83;;;;;;;;;;5051963;28;20020;-64
2022/07/30 01:41:16;;;;;;;9.43;4.05;;;;;;;;;;5055369;28;20027;-64
2022/07/30 01:43:44;;;;;;;9.38;4.22;;;;;;;;;;5055103;28;20032;-64
2022/07/30 01:46:09;;;;;;;6.20;3.75;;;;;;;;;;5068263;28;20021;-64
2022/07/30 01:48:35;;;;;;;11.35;4.60;;;;;;;;;;5068086;28;20081;-64
2022/07/30 01:51:02;;;;;;;6.60;4.10;;;;;;;;;;5065495;28;20048;-64
2022/07/30 01:53:29;;;;;;;6.03;4.13;;;;;;;;;;5056951;28;20036;-64
2022/07/30 01:55:55;;;;;;;10.30;4.00;;;;;;;;;;5054390;28;20090;-64
2022/07/30 01:58:21;;;;;;;7.90;4.07;;;;;;;;;;5059310;28;20474;-64
2022/07/30 02:00:47;;;;;;;12.15;3.83;;;;;;;;;;5061861;28;20029;-64
2022/07/30 02:03:13;;;;;;;7.30;3.67;;;;;;;;;;5068600;28;20020;-64
2022/07/30 02:05:39;;;;;;;9.93;4.03;;;;;;;;;;5067645;28;20470;-64
2022/07/30 02:08:27;;;;;;;6.97;4.13;;;;;;;;;;5050048;28;20078;-64
2022/07/30 02:10:56;;;;;;;9.65;3.92;;;;;;;;;;5068022;28;20025;-64
2022/07/30 02:13:25;;;;;;;9.00;3.95;;;;;;;;;;5068439;28;20374;-64
2022/07/30 02:15:58;;;;;;;8.07;4.43;;;;;;;;;;5069436;28;20021;-64
2022/07/30 02:18:32;;;;;;;12.80;4.18;;;;;;;;;;5058276;28;20019;-64
2022/07/30 02:21:03;;;;;;;9.65;3.85;;;;;;;;;;5066935;28;20033;-64
2022/07/30 02:23:29;;;;;;;7.40;3.85;;;;;;;;;;5068323;28;20111;-64
2022/07/30 02:25:56;;;;;;;7.00;4.22;;;;;;;;;;5054438;28;20020;-64
2022/07/30 02:28:22;;;;;;;8.45;4.53;;;;;;;;;;5064632;28;20023;-64
2022/07/30 02:30:49;;;;;;;9.35;4.55;;;;;;;;;;5068676;28;20017;-64
2022/07/30 02:33:16;;;;;;;10.55;4.35;;;;;;;;;;5066553;28;20021;-64
2022/07/30 02:35:41;;;;;;;9.07;4.82;;;;;;;;;;5061699;28;20092;-64
2022/07/30 02:38:08;;;;;;;8.27;4.20;;;;;;;;;;5062805;28;20116;-64
2022/07/30 02:40:33;;;;;;;7.35;3.97;;;;;;;;;;5069833;28;20055;-64
2022/07/30 02:42:58;;;;;;;10.00;4.40;;;;;;;;;;5066975;28;20505;-64
2022/07/30 02:45:24;;;;;;;10.45;4.68;;;;;;;;;;5068326;28;20374;-64
2022/07/30 02:47:52;;;;;;;13.40;4.80;;;;;;;;;;5067575;28;20081;-64
2022/07/30 02:50:18;;;;;;;8.85;4.63;;;;;;;;;;5063914;28;20017;-64
2022/07/30 02:52:44;;;;;;;8.23;3.83;;;;;;;;;;5053603;28;20032;-64
2022/07/30 02:55:10;;;;;;;8.25;4.55;;;;;;;;;;5062295;28;20164;-64
2022/07/30 02:57:36;;;;;;;9.10;4.88;;;;;;;;;;5066555;28;20489;-64
2022/07/30 03:00:01;;;;;;;13.52;4.57;;;;;;;;;;5068810;28;20127;-64
2022/07/30 03:02:27;;;;;;;6.43;4.80;;;;;;;;;;5055515;28;20017;-64
2022/07/30 03:04:53;;;;;;;8.60;4.63;;;;;;;;;;5064893;28;20374;-64
2022/07/30 03:07:19;;;;;;;15.60;5.18;;;;;;;;;;5068095;28;20092;-64
2022/07/30 03:09:44;;;;;;;8.65;4.78;;;;;;;;;;5068335;28;20499;-64
2022/07/30 03:12:11;;;;;;;7.00;4.40;;;;;;;;;;5067451;28;20029;-64
2022/07/30 03:14:36;;;;;;;8.10;4.45;;;;;;;;;;5067662;28;20092;-64
2022/07/30 03:17:02;;;;;;;12.00;5.13;;;;;;;;;;5067359;28;20095;-64
2022/07/30 03:19:29;;;;;;;10.82;5.35;;;;;;;;;;5059048;28;20024;-64
2022/07/30 03:21:55;;;;;;;12.13;5.35;;;;;;;;;;5065778;28;20033;-64
2022/07/30 03:24:22;;;;;;;11.00;4.72;;;;;;;;;;5039644;28;20017;-64
2022/07/30 03:26:47;;;;;;;8.75;5.00;;;;;;;;;;5065892;28;20067;-64
2022/07/30 03:29:13;;;;;;;9.43;4.85;;;;;;;;;;5070310;28;20021;-64
2022/07/30 03:31:39;;;;;;;10.50;5.00;;;;;;;;;;5057626;28;20060;-64
2022/07/30 03:34:05;;;;;;;7.25;4.55;;;;;;;;;;5064594;28;20022;-64
2022/07/30 03:36:30;;;;;;;7.97;4.80;;;;;;;;;;5073052;28;20051;-64
2022/07/30 03:38:56;;;;;;;11.45;4.78;;;;;;;;;;5071780;28;20025;-64
2022/07/30 03:41:21;;;;;;;14.07;5.37;;;;;;;;;;5069800;28;20025;-64
2022/07/30 03:43:47;;;;;;;9.68;4.90;;;;;;;;;;5071614;28;20262;-64
2022/07/30 03:46:12;;;;;;;10.43;5.47;;;;;;;;;;5069356;28;20025;-64
2022/07/30 03:48:38;;;;;;;9.63;4.85;;;;;;;;;;5060485;28;20016;-64
2022/07/30 03:51:04;;;;;;;12.93;5.20;;;;;;;;;;5070324;28;20405;-64
2022/07/30 03:53:30;;;;;;;12.00;5.65;;;;;;;;;;5057672;28;20478;-64
2022/07/30 03:55:56;;;;;;;9.38;4.70;;;;;;;;;;5062958;28;20116;-64
2022/07/30 03:58:21;;;;;;;13.35;5.10;;;;;;;;;;5065668;28;20477;-64
2022/07/30 04:00:48;;;;;;;8.95;4.93;;;;;;;;;;5069657;28;20036;-64
2022/07/30 04:03:13;;;;;;;14.77;5.15;;;;;;;;;;5069497;28;20033;-64
2022/07/30 04:05:38;;;;;;;7.28;4.38;;;;;;;;;;5070489;28;20029;-64
2022/07/30 04:08:04;;;;;;;9.43;5.73;;;;;;;;;;5069122;28;20079;-64
2022/07/30 04:10:29;;;;;;;8.00;4.93;;;;;;;;;;5065198;28;20270;-64
2022/07/30 04:12:55;;;;;;;8.73;4.87;;;;;;;;;;5059011;28;20782;-64
2022/07/30 04:15:20;;;;;;;6.30;4.43;;;;;;;;;;5055992;28;20247;-64
2022/07/30 04:17:47;;;;;;;10.17;5.27;;;;;;;;;;5063186;28;20403;-65
2022/07/30 04:20:16;;;;;;;9.98;5.60;;;;;;;;;;5069244;28;20273;-64
2022/07/30 04:22:41;;;;;;;10.30;5.72;;;;;;;;;;5068611;28;20444;-65
2022/07/30 04:25:07;;;;;;;11.82;6.03;;;;;;;;;;5071290;28;20048;-64
2022/07/30 04:27:33;;;;;;;13.20;6.32;;;;;;;;;;5061626;28;20016;-64
2022/07/30 04:29:59;;;;;;;8.43;5.70;;;;;;;;;;5065312;28;20020;-64
2022/07/30 04:32:24;;;;;;;9.70;5.80;;;;;;;;;;5065991;28;20008;-65
2022/07/30 04:34:50;;;;;;;11.60;6.38;;;;;;;;;;5060524;28;20017;-64
2022/07/30 04:37:16;;;;;;;10.60;5.53;;;;;;;;;;5063588;28;20473;-64
2022/07/30 04:39:41;;;;;;;13.85;6.20;;;;;;;;;;5059792;28;20024;-64
2022/07/30 04:42:07;;;;;;;9.30;5.97;;;;;;;;;;5067247;28;20024;-64
2022/07/30 04:44:33;;;;;;;23.33;6.70;;;;;;;;;;5069374;28;20271;-64
2022/07/30 04:46:58;;;;;;;12.25;6.53;;;;;;;;;;5068067;28;20115;-65
2022/07/30 04:49:24;;;;;;;9.37;5.80;;;;;;;;;;5057089;28;20028;-64
2022/07/30 04:51:49;;;;;;;14.05;6.00;;;;;;;;;;5068075;28;20623;-64
2022/07/30 04:54:15;;;;;;;15.65;6.25;;;;;;;;;;5053792;28;20020;-64
2022/07/30 04:56:40;;;;;;;9.75;6.15;;;;;;;;;;5068195;28;20028;-64
2022/07/30 04:59:06;;;;;;;15.93;6.55;;;;;;;;;;5068601;28;20017;-64
2022/07/30 05:01:33;;;;;;;9.73;5.97;;;;;;;;;;5069078;28;20020;-63
2022/07/30 05:03:59;;;;;;;13.10;6.03;;;;;;;;;;5069892;28;20021;-64
2022/07/30 05:06:25;;;;;;;12.75;6.65;;;;;;;;;;5068889;28;20103;-64
2022/07/30 05:08:50;;;;;;;10.10;6.07;;;;;;;;;;5069476;28;20166;-64
2022/07/30 05:11:15;;;;;;;12.20;7.57;;;;;;;;;;5068336;28;20012;-64
2022/07/30 05:13:42;;;;;;;12.70;6.82;;;;;;;;;;5069394;28;20024;-64
2022/07/30 05:16:07;;;;;;;16.23;6.80;;;;;;;;;;5065344;28;20517;-64
2022/07/30 05:18:33;;;;;;;13.32;7.32;;;;;;;;;;5055390;28;20020;-65
2022/07/30 05:20:58;;;;;;;13.68;6.75;;;;;;;;;;5067663;28;20043;-64
2022/07/30 05:23:23;;;;;;;13.32;8.13;;;;;;;;;;5070124;28;20047;-64
2022/07/30 05:25:48;;;;;;;10.63;6.73;;;;;;;;;;5069289;28;20025;-65
2022/07/30 05:28:14;;;;;;;10.53;6.50;;;;;;;;;;5061300;28;20320;-63
2022/07/30 05:30:39;;;;;;;9.57;6.23;;;;;;;;;;5068905;28;20831;-65
2022/07/30 05:33:04;;;;;;;9.23;6.25;;;;;;;;;;5069351;28;20255;-63
2022/07/30 05:35:29;;;;;;;14.27;6.13;;;;;;;;;;5068347;28;20107;-65
2022/07/30 05:37:54;;;;;;;14.13;7.23;;;;;;;;;;5069062;28;20095;-63
2022/07/30 05:40:20;;;;;;;11.30;7.38;;;;;;;;;;5056262;28;20297;-65
2022/07/30 05:42:46;;;;;;;19.85;12.45;;;;;;;;;;5060294;28;20027;-65
2022/07/30 05:45:11;;;;;;;25.13;14.40;;;;;;;;;;5068804;28;20029;-65
2022/07/30 05:47:36;;;;;;;23.33;14.57;;;;;;;;;;5069050;28;20293;-64
2022/07/30 05:50:01;;;;;;;31.88;14.35;;;;;;;;;;5067096;28;20009;-64
2022/07/30 05:52:27;;;;;;;23.52;14.85;;;;;;;;;;5069840;28;20020;-64
2022/07/30 05:54:52;;;;;;;34.05;16.00;;;;;;;;;;5058613;28;20533;-66
2022/07/30 05:57:18;;;;;;;31.33;15.30;;;;;;;;;;5063209;28;20017;-65
2022/07/30 05:59:43;;;;;;;26.03;15.43;;;;;;;;;;5054753;28;20501;-63
2022/07/30 06:02:08;;;;;;;28.63;16.23;;;;;;;;;;5051533;28;20332;-65
2022/07/30 06:04:34;;;;;;;28.73;15.43;;;;;;;;;;5064888;28;20362;-65
2022/07/30 06:07:00;;;;;;;33.53;16.13;;;;;;;;;;5068888;28;20386;-65
2022/07/30 06:09:25;;;;;;;34.90;17.77;;;;;;;;;;5064630;28;20108;-64
2022/07/30 06:11:50;;;;;;;34.60;17.00;;;;;;;;;;5069752;28;20798;-65
2022/07/30 06:14:15;;;;;;;31.93;18.53;;;;;;;;;;5063467;28;20060;-65
2022/07/30 06:16:41;;;;;;;31.97;19.33;;;;;;;;;;5061208;28;20596;-65
2022/07/30 06:19:06;;;;;;;39.40;20.98;;;;;;;;;;5063523;28;20275;-65
2022/07/30 06:21:31;;;;;;;38.83;21.10;;;;;;;;;;5063668;28;20032;-65
2022/07/30 06:23:56;;;;;;;48.27;23.70;;;;;;;;;;5068133;28;20354;-64
2022/07/30 06:26:21;;;;;;;39.70;22.17;;;;;;;;;;5065374;28;20312;-65
2022/07/30 06:28:46;;;;;;;34.50;19.13;;;;;;;;;;5066600;28;20025;-64
2022/07/30 06:31:12;;;;;;;35.33;20.63;;;;;;;;;;5066146;28;20326;-65
2022/07/30 06:33:37;;;;;;;39.13;20.27;;;;;;;;;;5059880;28;20251;-64
2022/07/30 06:36:02;;;;;;;45.47;20.53;;;;;;;;;;5064396;28;20279;-64
2022/07/30 06:38:27;;;;;;;39.42;20.70;;;;;;;;;;5062748;28;20358;-64
2022/07/30 06:40:53;;;;;;;37.10;21.08;;;;;;;;;;5058173;28;20024;-65
2022/07/30 06:43:19;;;;;;;43.92;22.00;;;;;;;;;;5066326;28;20096;-65
2022/07/30 06:45:45;;;;;;;42.67;19.92;;;;;;;;;;5069038;28;20481;-65
2022/07/30 06:48:10;;;;;;;39.67;20.80;;;;;;;;;;5066417;28;20028;-65
2022/07/30 06:50:36;;;;;;;40.30;20.80;;;;;;;;;;5065184;28;20267;-65
2022/07/30 06:53:01;;;;;;;44.85;24.33;;;;;;;;;;5057675;28;20597;-65
2022/07/30 06:55:26;;;;;;;44.38;23.17;;;;;;;;;;5062304;28;20492;-64
2022/07/30 06:57:51;;;;;;;47.73;25.47;;;;;;;;;;5062344;28;20095;-65
2022/07/30 07:00:16;;;;;;;47.37;25.27;;;;;;;;;;5056697;28;20270;-64
2022/07/30 07:02:42;;;;;;;49.72;28.08;;;;;;;;;;5072511;28;20282;-65
2022/07/30 07:05:07;;;;;;;57.35;29.10;;;;;;;;;;5062247;28;20017;-65
2022/07/30 07:07:33;;;;;;;53.92;29.67;;;;;;;;;;5060814;28;20082;-66
2022/07/30 07:09:58;;;;;;;76.32;32.88;;;;;;;;;;5057236;28;20063;-65
2022/07/30 07:12:23;;;;;;;63.20;33.45;;;;;;;;;;5071996;28;20190;-64
2022/07/30 07:14:49;;;;;;;65.57;33.73;;;;;;;;;;5057985;28;20024;-65
2022/07/30 07:17:14;;;;;;;57.13;32.87;;;;;;;;;;5069552;28;20267;-62
2022/07/30 07:19:39;;;;;;;68.97;36.47;;;;;;;;;;5064617;28;20367;-64
2022/07/30 07:22:04;;;;;;;71.32;35.85;;;;;;;;;;5069806;28;20267;-65
2022/07/30 07:24:29;;;;;;;75.87;34.93;;;;;;;;;;5073282;28;20030;-63
2022/07/30 07:26:55;;;;;;;64.73;33.77;;;;;;;;;;5069826;28;20360;-65
2022/07/30 07:29:20;;;;;;;59.03;31.30;;;;;;;;;;5070275;28;20303;-63
2022/07/30 07:31:45;;;;;;;66.55;34.80;;;;;;;;;;5063940;28;20096;-65
2022/07/30 07:34:10;;;;;;;60.65;29.42;;;;;;;;;;5063145;28;20024;-64
2022/07/30 07:36:36;;;;;;;59.63;28.73;;;;;;;;;;5057436;28;20039;-64
2022/07/30 07:39:01;;;;;;;62.45;26.52;;;;;;;;;;5059114;28;20535;-63
2022/07/30 07:41:26;;;;;;;49.30;24.35;;;;;;;;;;5055997;28;20052;-63
2022/07/30 07:43:51;;;;;;;47.13;24.33;;;;;;;;;;5057008;28;20036;-63
2022/07/30 07:46:17;;;;;;;44.80;23.38;;;;;;;;;;5071234;28;20077;-65
2022/07/30 07:48:42;;;;;;;40.42;21.58;;;;;;;;;;5070646;28;20500;-64
2022/07/30 07:51:07;;;;;;;41.90;19.30;;;;;;;;;;5067774;28;20013;-64
2022/07/30 07:53:33;;;;;;;44.40;19.10;;;;;;;;;;5068056;28;20412;-65
2022/07/30 07:55:58;;;;;;;41.80;17.73;;;;;;;;;;5069154;28;20474;-63
2022/07/30 07:58:23;;;;;;;34.15;17.60;;;;;;;;;;5065615;28;20299;-64
2022/07/30 08:00:48;;;;;;;36.72;16.48;;;;;;;;;;5067869;28;20028;-64
2022/07/30 08:03:14;;;;;;;24.10;14.43;;;;;;;;;;5072524;28;20392;-64
2022/07/30 08:05:39;;;;;;;22.23;12.52;;;;;;;;;;5065367;28;20294;-64
2022/07/30 08:08:04;;;;;;;28.65;13.85;;;;;;;;;;5061766;28;20021;-64
2022/07/30 08:10:29;;;;;;;25.75;14.52;;;;;;;;;;5068295;28;20418;-64
2022/07/30 08:12:55;;;;;;;35.15;14.80;;;;;;;;;;5062954;28;20082;-64
2022/07/30 08:15:20;;;;;;;24.93;14.07;;;;;;;;;;5069909;28;20028;-64
2022/07/30 08:17:46;;;;;;;24.17;13.80;;;;;;;;;;5068877;28;20259;-64
2022/07/30 08:20:12;;;;;;;28.88;14.50;;;;;;;;;;5071506;28;20016;-64
2022/07/30 08:22:37;;;;;;;26.58;13.93;;;;;;;;;;5068608;28;20020;-64
2022/07/30 08:25:03;;;;;;;21.90;12.75;;;;;;;;;;5066904;28;20103;-64
2022/07/30 08:27:28;;;;;;;24.52;12.68;;;;;;;;;;5058367;28;20096;-65
2022/07/30 08:29:53;;;;;;;25.67;12.93;;;;;;;;;;5065173;28;20016;-63
2022/07/30 08:32:19;;;;;;;24.07;11.73;;;;;;;;;;5070042;28;20020;-64
2022/07/30 08:34:44;;;;;;;21.97;12.13;;;;;;;;;;5053133;28;20021;-65
2022/07/30 08:37:09;;;;;;;20.93;10.53;;;;;;;;;;5066422;28;20320;-64
2022/07/30 08:39:34;;;;;;;22.80;9.95;;;;;;;;;;5064557;28;20025;-65
2022/07/30 08:42:01;;;;;;;24.80;10.68;;;;;;;;;;5054962;28;20032;-63
2022/07/30 08:44:27;;;;;;;16.70;9.65;;;;;;;;;;5071029;28;20040;-64
2022/07/30 08:46:55;;;;;;;23.50;8.73;;;;;;;;;;5067995;28;20534;-63
2022/07/30 08:49:21;;;;;;;20.55;9.15;;;;;;;;;;5070999;28;20103;-64
2022/07/30 08:51:46;;;;;;;20.27;9.52;;;;;;;;;;5069498;28;20071;-63
2022/07/30 08:54:12;;;;;;;23.63;9.82;;;;;;;;;;5066459;28;20498;-64
2022/07/30 08:56:37;;;;;;;22.15;9.23;;;;;;;;;;5069721;28;20036;-63
2022/07/30 08:59:02;;;;;;;20.88;10.45;;;;;;;;;;5069417;28;20631;-65
2022/07/30 09:01:28;;;;;;;19.85;9.55;;;;;;;;;;5068750;28;20028;-65
2022/07/30 09:03:53;;;;;;;21.50;9.50;;;;;;;;;;5068738;28;20516;-64
2022/07/30 09:06:18;;;;;;;19.70;9.37;;;;;;;;;;5069291;28;20291;-65
2022/07/30 09:08:43;;;;;;;19.83;8.25;;;;;;;;;;5060805;28;20290;-65
2022/07/30 09:11:09;;;;;;;18.60;7.77;;;;;;;;;;5065227;28;20024;-67
2022/07/30 09:13:38;;;;;;;23.60;9.75;;;;;;;;;;5061356;28;20259;-65
2022/07/30 09:16:04;;;;;;;21.05;8.85;;;;;;;;;;5067913;28;20013;-64
2022/07/30 09:18:39;;;;;;;18.40;8.02;;;;;;;;;;5069078;28;20029;-64
2022/07/30 09:21:20;;;;;;;21.90;8.38;;;;;;;;;;5068447;28;20031;-64
2022/07/30 09:23:54;;;;;;;20.25;8.35;;;;;;;;;;5066014;28;20111;-64
2022/07/30 09:26:20;;;;;;;25.08;9.90;;;;;;;;;;5056600;28;20056;-65
2022/07/30 09:28:45;;;;;;;22.20;9.25;;;;;;;;;;5060096;28;20512;-64
2022/07/30 09:31:10;;;;;;;22.45;9.20;;;;;;;;;;5068234;28;20013;-66
2022/07/30 09:33:36;;;;;;;24.10;8.27;;;;;;;;;;5069339;28;20059;-64
2022/07/30 09:36:03;;;;;;;20.42;9.07;;;;;;;;;;5063370;28;20543;-64
2022/07/30 09:38:28;;;;;;;19.70;9.10;;;;;;;;;;5064624;28;20037;-65
2022/07/30 09:40:55;;;;;;;15.93;7.70;;;;;;;;;;5067429;28;20028;-64
2022/07/30 09:43:21;;;;;;;19.83;9.65;;;;;;;;;;5056345;28;20021;-65
2022/07/30 09:45:54;;;;;;;19.13;8.82;;;;;;;;;;5051076;28;20101;-64
2022/07/30 09:48:20;;;;;;;15.45;9.02;;;;;;;;;;5055160;28;20509;-65
2022/07/30 09:50:46;;;;;;;26.67;10.23;;;;;;;;;;5053711;28;20017;-64
2022/07/30 09:53:13;;;;;;;21.80;9.50;;;;;;;;;;5066081;28;20020;-65
2022/07/30 09:55:38;;;;;;;16.35;8.38;;;;;;;;;;5068832;28;20044;-64
2022/07/30 09:58:04;;;;;;;18.67;7.33;;;;;;;;;;5070391;28;20086;-65
2022/07/30 10:00:31;;;;;;;19.30;8.95;;;;;;;;;;5070271;28;20017;-64
2022/07/30 10:02:58;;;;;;;24.40;9.00;;;;;;;;;;5061933;28;20055;-65
2022/07/30 10:05:24;;;;;;;16.83;7.57;;;;;;;;;;5053791;28;20020;-64
2022/07/30 10:07:56;;;;;;;19.33;7.70;;;;;;;;;;5067685;28;20021;-64
2022/07/30 10:10:23;;;;;;;13.45;7.47;;;;;;;;;;5064743;28;20017;-65
2022/07/30 10:12:50;;;;;;;16.73;7.90;;;;;;;;;;5070381;28;20020;-65
2022/07/30 10:15:17;;;;;;;23.63;6.53;;;;;;;;;;5070194;28;20016;-66
2022/07/30 10:17:42;;;;;;;11.80;5.88;;;;;;;;;;5062789;28;20029;-64
2022/07/30 10:20:08;;;;;;;16.23;6.77;;;;;;;;;;5060455;28;20511;-65
2022/07/30 10:22:33;;;;;;;15.52;6.90;;;;;;;;;;5066669;28;20680;-64
2022/07/30 10:24:59;;;;;;;21.52;5.90;;;;;;;;;;5070316;28;20035;-64
2022/07/30 10:27:24;;;;;;;18.33;7.38;;;;;;;;;;5069803;28;20033;-65
2022/07/30 10:29:50;;;;;;;13.07;6.63;;;;;;;;;;5071964;28;20206;-64
2022/07/30 10:32:15;;;;;;;20.80;7.95;;;;;;;;;;5065509;28;20540;-65
2022/07/30 10:34:41;;;;;;;14.27;7.35;;;;;;;;;;5070025;28;20032;-65
2022/07/30 10:37:06;;;;;;;16.70;6.95;;;;;;;;;;5071392;28;20024;-66
2022/07/30 10:39:34;;;;;;;17.75;5.80;;;;;;;;;;5074183;28;20017;-66
2022/07/30 10:42:05;;;;;;;16.77;6.53;;;;;;;;;;5074347;28;20051;-66
2022/07/30 10:44:49;;;;;;;10.80;5.90;;;;;;;;;;5073645;28;20020;-65
2022/07/30 10:47:17;;;;;;;13.27;5.68;;;;;;;;;;5063160;28;20056;-66
2022/07/30 10:50:02;;;;;;;14.68;7.35;;;;;;;;;;5060115;28;20025;-66
2022/07/30 10:52:42;;;;;;;16.40;5.75;;;;;;;;;;5054386;28;20478;-66
2022/07/30 10:55:14;;;;;;;18.58;5.97;;;;;;;;;;5054235;28;20020;-66
2022/07/30 10:57:58;;;;;;;13.95;5.80;;;;;;;;;;5062928;28;20037;-66
2022/07/30 11:00:24;;;;;;;17.13;6.32;;;;;;;;;;5066330;28;20016;-66
2022/07/30 11:03:08;;;;;;;15.43;6.25;;;;;;;;;;5071129;28;20535;-66
2022/07/30 11:05:33;;;;;;;15.27;6.80;;;;;;;;;;5068209;28;20392;-66
2022/07/30 11:08:18;;;;;;;13.38;5.55;;;;;;;;;;5074204;28;20017;-66
2022/07/30 11:10:44;;;;;;;13.50;5.20;;;;;;;;;;5074146;28;20021;-66
2022/07/30 11:13:09;;;;;;;11.68;4.47;;;;;;;;;;5056622;28;20503;-66
2022/07/30 11:16:04;;;;;;;10.10;4.47;;;;;;;;;;5067459;28;20509;-66
2022/07/30 11:18:29;;;;;;;18.67;4.38;;;;;;;;;;5041843;28;20029;-66
2022/07/30 11:21:12;;;;;;;10.87;4.43;;;;;;;;;;5057368;28;20036;-65
2022/07/30 11:23:38;;;;;;;6.93;4.15;;;;;;;;;;5055206;28;20017;-66
2022/07/30 11:26:03;;;;;;;11.90;4.85;;;;;;;;;;5054399;28;20465;-66
2022/07/30 11:28:44;;;;;;;11.00;4.28;;;;;;;;;;5057242;28;20016;-66
2022/07/30 11:31:29;;;;;;;7.95;4.15;;;;;;;;;;5064269;28;20035;-66
2022/07/30 11:34:33;;;;;;;13.77;5.53;;;;;;;;;;5067578;28;20025;-66
2022/07/30 11:37:01;;;;;;;17.30;5.60;;;;;;;;;;5007668;28;20046;-66
2022/07/30 11:39:45;;;;;;;9.88;4.97;;;;;;;;;;5012671;28;20070;-66
2022/07/30 11:42:23;;;;;;;12.68;4.75;;;;;;;;;;5037664;28;20053;-66
2022/07/30 11:44:48;;;;;;;10.10;5.05;;;;;;;;;;5067101;28;20028;-65
2022/07/30 11:47:14;;;;;;;15.60;5.83;;;;;;;;;;5071606;28;20035;-66
2022/07/30 11:49:39;;;;;;;8.20;5.07;;;;;;;;;;5073281;28;20262;-65
2022/07/30 11:52:05;;;;;;;10.88;4.85;;;;;;;;;;5074912;28;20013;-66
2022/07/30 11:54:30;;;;;;;12.60;4.67;;;;;;;;;;5075422;28;20385;-66
2022/07/30 11:56:58;;;;;;;9.87;5.23;;;;;;;;;;5075675;28;20259;-66
2022/07/30 11:59:23;;;;;;;15.45;4.28;;;;;;;;;;5064693;28;20029;-65
2022/07/30 12:01:49;;;;;;;8.90;3.73;;;;;;;;;;5072667;28;20028;-66
2022/07/30 12:04:15;;;;;;;12.15;4.30;;;;;;;;;;5055745;28;20251;-66
2022/07/30 12:06:44;;;;;;;8.95;4.50;;;;;;;;;;5059285;28;20020;-66
2022/07/30 12:09:09;;;;;;;10.57;3.83;;;;;;;;;;5057220;28;20054;-66
2022/07/30 12:11:36;;;;;;;5.80;3.50;;;;;;;;;;5055832;28;20033;-66
2022/07/30 12:14:02;;;;;;;9.73;4.50;;;;;;;;;;5061615;28;20271;-66
2022/07/30 12:16:27;;;;;;;8.77;4.40;;;;;;;;;;5070306;28;20373;-66
2022/07/30 12:18:53;;;;;;;9.63;4.15;;;;;;;;;;5073078;28;20036;-66
2022/07/30 12:21:19;;;;;;;5.90;4.03;;;;;;;;;;5068411;28;20028;-65
2022/07/30 12:23:59;;;;;;;7.30;3.90;;;;;;;;;;5063047;28;20492;-65
2022/07/30 12:26:26;;;;;;;8.93;3.30;;;;;;;;;;5072322;28;20408;-66
2022/07/30 12:28:51;;;;;;;13.77;3.35;;;;;;;;;;5061612;28;20393;-65
2022/07/30 12:31:17;;;;;;;6.47;3.10;;;;;;;;;;5053479;28;20477;-65
2022/07/30 12:33:42;;;;;;;8.48;3.30;;;;;;;;;;5052192;28;20101;-65
2022/07/30 12:36:09;;;;;;;4.90;3.10;;;;;;;;;;5052089;28;20020;-65
2022/07/30 12:38:44;;;;;;;10.88;3.30;;;;;;;;;;5051777;28;20473;-65
2022/07/30 12:41:10;;;;;;;10.25;3.40;;;;;;;;;;5055655;28;20050;-65
2022/07/30 12:43:45;;;;;;;11.05;3.38;;;;;;;;;;5071266;28;20512;-65
2022/07/30 12:46:20;;;;;;;10.32;3.35;;;;;;;;;;5053868;28;20080;-66
2022/07/30 12:48:49;;;;;;;7.60;3.67;;;;;;;;;;5051824;28;20485;-66
2022/07/30 12:51:14;;;;;;;9.32;3.05;;;;;;;;;;5051618;28;20017;-66
2022/07/30 12:53:40;;;;;;;8.57;2.27;;;;;;;;;;5051894;28;20481;-66
2022/07/30 12:56:11;;;;;;;6.82;2.30;;;;;;;;;;5060890;28;20274;-66
2022/07/30 12:58:37;;;;;;;5.28;2.05;;;;;;;;;;5067913;28;20099;-66
2022/07/30 13:01:02;;;;;;;5.47;1.98;;;;;;;;;;5068641;28;20112;-66
2022/07/30 13:03:28;;;;;;;7.13;2.15;;;;;;;;;;5047101;28;20100;-66
2022/07/30 13:05:54;;;;;;;4.15;2.17;;;;;;;;;;5053762;28;20067;-65
2022/07/30 13:08:19;;;;;;;9.55;2.00;;;;;;;;;;5070734;28;20024;-66
2022/07/30 13:11:00;;;;;;;6.07;2.50;;;;;;;;;;5068051;28;20024;-66
2022/07/30 13:13:28;;;;;;;13.05;2.60;;;;;;;;;;5071354;28;20025;-66
2022/07/30 13:15:57;;;;;;;7.05;2.25;;;;;;;;;;5071136;28;20103;-66
2022/07/30 13:18:22;;;;;;;7.07;2.60;;;;;;;;;;5062979;28;20013;-66
2022/07/30 13:20:47;;;;;;;8.90;2.60;;;;;;;;;;5060586;28;20481;-66
2022/07/30 13:23:13;;;;;;;6.17;2.50;;;;;;;;;;5065742;28;20770;-66
2022/07/30 13:25:38;;;;;;;5.27;2.60;;;;;;;;;;5054138;28;20055;-66
2022/07/30 13:28:03;;;;;;;5.60;2.47;;;;;;;;;;5050824;28;20330;-66
2022/07/30 13:30:28;;;;;;;4.90;2.28;;;;;;;;;;5060546;28;20282;-66
2022/07/30 13:32:53;;;;;;;10.47;4.10;;;;;;;;;;5062358;28;20056;-66
2022/07/30 13:35:19;;;;;;;8.40;2.53;;;;;;;;;;5070855;28;20027;-66
2022/07/30 13:37:44;;;;;;;3.83;2.25;;;;;;;;;;5066428;28;20057;-66
2022/07/30 13:40:09;;;;;;;6.63;2.53;;;;;;;;;;5056156;28;20036;-66
2022/07/30 13:42:34;;;;;;;9.45;2.15;;;;;;;;;;5066977;28;20024;-66
2022/07/30 13:45:00;;;;;;;8.80;2.70;;;;;;;;;;5057717;28;20035;-66
2022/07/30 13:47:25;;;;;;;7.87;2.23;;;;;;;;;;5065243;28;20073;-66
2022/07/30 13:49:50;;;;;;;4.03;2.28;;;;;;;;;;5071081;28;20020;-66
2022/07/30 13:52:15;;;;;;;7.03;2.45;;;;;;;;;;5052806;28;20530;-66
2022/07/30 13:54:41;;;;;;;4.95;1.70;;;;;;;;;;5069862;28;20100;-66
2022/07/30 13:57:06;;;;;;;5.55;1.95;;;;;;;;;;5059764;28;20024;-66
2022/07/30 13:59:31;;;;;;;6.83;2.00;;;;;;;;;;5054626;28;20025;-66
2022/07/30 14:01:56;;;;;;;7.57;1.83;;;;;;;;;;5051859;28;20278;-66
2022/07/30 14:04:21;;;;;;;4.68;2.22;;;;;;;;;;5055441;28;20107;-66
2022/07/30 14:06:47;;;;;;;5.10;1.43;;;;;;;;;;5053385;28;20024;-66
2022/07/30 14:09:12;;;;;;;10.70;1.70;;;;;;;;;;5056342;28;20362;-66
2022/07/30 14:11:37;;;;;;;2.30;1.37;;;;;;;;;;5051650;28;20444;-66
2022/07/30 14:14:02;;;;;;;4.23;1.50;;;;;;;;;;5061351;28;20710;-66
2022/07/30 14:16:27;;;;;;;2.53;1.43;;;;;;;;;;5059210;28;20271;-66
2022/07/30 14:18:53;;;;;;;4.05;1.35;;;;;;;;;;5052497;28;20801;-66
2022/07/30 14:21:18;;;;;;;2.97;1.27;;;;;;;;;;5050259;28;20025;-66
2022/07/30 14:23:43;;;;;;;5.03;1.67;;;;;;;;;;5050298;28;20465;-66
2022/07/30 14:26:08;;;;;;;4.07;1.30;;;;;;;;;;5050130;28;20106;-66
2022/07/30 14:28:34;;;;;;;1.93;1.17;;;;;;;;;;5053000;28;20451;-66
2022/07/30 14:30:59;;;;;;;11.53;1.50;;;;;;;;;;5049973;28;20036;-66